createdAt,value
2022-09-15T00:00:33.380Z,4.20
2022-09-15T00:01:33.443Z,4.50
2022-09-15T00:02:33.509Z,4.90
2022-09-15T00:03:33.351Z,5.00
2022-09-15T00:04:33.361Z,5.30
2022-09-15T00:05:33.330Z,3.80
2022-09-15T00:06:33.318Z,4.80
2022-09-15T00:07:33.321Z,5.90
2022-09-15T00:08:33.300Z,6.10
2022-09-15T00:09:33.282Z,5.50
2022-09-15T00:10:33.287Z,5.90
2022-09-15T00:11:33.265Z,5.10
2022-09-15T00:12:33.272Z,5.50
2022-09-15T00:13:33.244Z,6.60
2022-09-15T00:14:33.236Z,5.40
2022-09-15T00:15:33.222Z,6.10
2022-09-15T00:16:33.278Z,5.90
2022-09-15T00:17:33.216Z,5.70
2022-09-15T00:18:33.197Z,6.10
2022-09-15T00:19:33.180Z,5.30
2022-09-15T00:20:33.176Z,5.30
2022-09-15T00:21:33.164Z,7.00
2022-09-15T00:22:33.170Z,5.40
2022-09-15T00:23:33.147Z,5.60
2022-09-15T00:24:33.152Z,6.00
2022-09-15T00:25:33.124Z,5.80
2022-09-15T00:26:33.118Z,5.10
2022-09-15T00:27:33.117Z,7.20
2022-09-15T00:28:33.103Z,6.20
2022-09-15T00:29:33.088Z,6.90
2022-09-15T00:30:33.171Z,6.10
2022-09-15T00:31:33.065Z,7.10
2022-09-15T00:32:33.071Z,7.40
2022-09-15T00:33:33.044Z,6.80
2022-09-15T00:34:33.037Z,8.00
2022-09-15T00:35:33.025Z,8.30
2022-09-15T00:36:33.015Z,7.80
2022-09-15T00:37:33.024Z,7.40
2022-09-15T00:38:32.998Z,6.20
2022-09-15T00:39:32.982Z,4.70
2022-09-15T00:40:33.072Z,6.40
2022-09-15T00:41:32.971Z,7.60
2022-09-15T00:42:32.970Z,5.90
2022-09-15T00:43:32.944Z,6.20
2022-09-15T00:44:32.940Z,5.90
2022-09-15T00:45:32.991Z,7.20
2022-09-15T00:46:32.919Z,6.50
2022-09-15T00:47:32.914Z,7.00
2022-09-15T00:48:32.903Z,6.30
2022-09-15T00:49:32.885Z,7.40
2022-09-15T00:50:32.877Z,7.10
2022-09-15T00:51:32.863Z,6.90
2022-09-15T00:52:38.875Z,6.70
2022-09-15T00:53:32.844Z,6.70
2022-09-15T00:54:32.838Z,6.00
2022-09-15T00:55:32.825Z,5.60
2022-09-15T00:56:32.818Z,5.70
2022-09-15T00:57:32.822Z,6.80
2022-09-15T00:58:32.800Z,6.50
2022-09-15T00:59:32.784Z,7.60
2022-09-15T01:00:32.778Z,5.80
2022-09-15T01:01:32.819Z,6.80
2022-09-15T01:02:32.892Z,5.70
2022-09-15T01:03:32.743Z,5.80
2022-09-15T01:04:32.739Z,7.60
2022-09-15T01:05:32.725Z,5.70
2022-09-15T01:06:32.741Z,6.40
2022-09-15T01:07:32.707Z,6.10
2022-09-15T01:08:32.696Z,6.10
2022-09-15T01:09:32.683Z,7.00
2022-09-15T01:10:32.680Z,7.10
2022-09-15T01:11:32.677Z,6.10
2022-09-15T01:12:32.659Z,5.60
2022-09-15T01:13:32.646Z,5.90
2022-09-15T01:14:32.637Z,7.10
2022-09-15T01:15:32.623Z,6.20
2022-09-15T01:16:32.745Z,5.80
2022-09-15T01:17:32.603Z,5.30
2022-09-15T01:18:32.598Z,5.30
2022-09-15T01:19:32.581Z,7.70
2022-09-15T01:20:32.582Z,6.20
2022-09-15T01:21:32.577Z,5.90
2022-09-15T01:22:32.560Z,6.30
2022-09-15T01:23:32.543Z,7.50
2022-09-15T01:24:32.539Z,6.90
2022-09-15T01:25:32.525Z,6.40
2022-09-15T01:26:32.534Z,5.80
2022-09-15T01:27:42.266Z,5.90
2022-09-15T01:28:32.505Z,5.90
2022-09-15T01:29:32.486Z,5.40
2022-09-15T01:30:32.481Z,5.90
2022-09-15T01:31:32.546Z,6.40
2022-09-15T01:32:32.459Z,4.90
2022-09-15T01:33:32.442Z,6.60
2022-09-15T01:34:32.439Z,6.10
2022-09-15T01:35:32.430Z,5.50
2022-09-15T01:36:32.432Z,6.40
2022-09-15T01:37:32.403Z,6.00
2022-09-15T01:38:32.396Z,5.10
2022-09-15T01:39:32.382Z,6.30
2022-09-15T01:40:32.449Z,5.80
2022-09-15T01:41:32.380Z,6.00
2022-09-15T01:42:32.358Z,6.20
2022-09-15T01:43:32.348Z,6.80
2022-09-15T01:44:32.339Z,6.10
2022-09-15T01:45:32.365Z,5.60
2022-09-15T01:46:32.333Z,5.40
2022-09-15T01:47:32.303Z,5.40
2022-09-15T01:48:32.299Z,6.40
2022-09-15T01:49:32.287Z,6.30
2022-09-15T01:50:32.278Z,6.00
2022-09-15T01:51:32.276Z,5.70
2022-09-15T01:52:32.259Z,6.10
2022-09-15T01:53:32.242Z,5.50
2022-09-15T01:54:32.244Z,6.00
2022-09-15T01:55:32.240Z,6.00
2022-09-15T01:56:32.243Z,5.80
2022-09-15T01:57:32.203Z,4.80
2022-09-15T01:58:32.198Z,4.90
2022-09-15T01:59:32.194Z,5.10
2022-09-15T02:00:32.175Z,4.70
2022-09-15T02:01:32.266Z,5.40
2022-09-15T02:02:32.263Z,5.30
2022-09-15T02:03:32.152Z,6.70
2022-09-15T02:04:32.144Z,3.90
2022-09-15T02:05:32.127Z,5.20
2022-09-15T02:06:32.130Z,6.00
2022-09-15T02:07:32.102Z,5.00
2022-09-15T02:08:32.099Z,4.90
2022-09-15T02:09:32.085Z,5.00
2022-09-15T02:10:32.079Z,5.50
2022-09-15T02:11:32.076Z,5.40
2022-09-15T02:12:32.058Z,4.70
2022-09-15T02:13:32.045Z,5.50
2022-09-15T02:14:32.043Z,4.60
2022-09-15T02:15:32.023Z,4.30
2022-09-15T02:16:32.068Z,4.60
2022-09-15T02:17:32.005Z,4.70
2022-09-15T02:18:32.003Z,5.10
2022-09-15T02:19:31.985Z,5.80
2022-09-15T02:20:31.977Z,5.70
2022-09-15T02:21:31.975Z,5.50
2022-09-15T02:22:31.960Z,5.00
2022-09-15T02:23:31.947Z,5.50
2022-09-15T02:24:31.939Z,5.00
2022-09-15T02:25:31.929Z,5.30
2022-09-15T02:26:31.940Z,4.60
2022-09-15T02:27:31.907Z,5.00
2022-09-15T02:28:31.898Z,4.80
2022-09-15T02:29:31.896Z,4.90
2022-09-15T02:30:31.879Z,5.50
2022-09-15T02:31:31.921Z,4.30
2022-09-15T02:32:31.861Z,4.70
2022-09-15T02:33:31.847Z,4.60
2022-09-15T02:34:31.840Z,4.70
2022-09-15T02:35:31.825Z,5.00
2022-09-15T02:36:31.838Z,4.50
2022-09-15T02:37:31.803Z,4.30
2022-09-15T02:38:31.808Z,4.60
2022-09-15T02:39:31.785Z,5.60
2022-09-15T02:40:31.849Z,4.80
2022-09-15T02:41:31.786Z,4.50
2022-09-15T02:42:31.760Z,5.60
2022-09-15T02:43:31.749Z,5.80
2022-09-15T02:44:31.743Z,5.10
2022-09-15T02:45:31.834Z,5.60
2022-09-15T02:46:31.720Z,5.00
2022-09-15T02:47:31.716Z,4.80
2022-09-15T02:48:31.697Z,4.90
2022-09-15T02:49:31.681Z,5.60
2022-09-15T02:50:31.679Z,4.70
2022-09-15T02:51:31.665Z,5.10
2022-09-15T02:52:31.671Z,4.50
2022-09-15T02:53:31.652Z,4.90
2022-09-15T02:54:31.635Z,5.50
2022-09-15T02:55:31.638Z,5.30
2022-09-15T02:56:31.635Z,4.30
2022-09-15T02:57:31.613Z,5.10
2022-09-15T02:58:31.603Z,4.80
2022-09-15T02:59:31.590Z,5.00
2022-09-15T03:00:31.673Z,5.80
2022-09-15T03:01:31.564Z,3.70
2022-09-15T03:02:31.712Z,5.60
2022-09-15T03:03:31.562Z,4.80
2022-09-15T03:04:31.545Z,5.20
2022-09-15T03:05:31.526Z,4.10
2022-09-15T03:06:31.529Z,5.80
2022-09-15T03:07:31.514Z,5.00
2022-09-15T03:08:31.497Z,6.10
2022-09-15T03:09:31.489Z,5.50
2022-09-15T03:10:31.480Z,5.30
2022-09-15T03:11:31.464Z,4.80
2022-09-15T03:12:31.473Z,5.10
2022-09-15T03:13:31.446Z,5.40
2022-09-15T03:14:31.441Z,4.40
2022-09-15T03:15:31.426Z,5.00
2022-09-15T03:16:31.433Z,6.10
2022-09-15T03:17:31.420Z,4.60
2022-09-15T03:18:31.399Z,5.50
2022-09-15T03:19:31.384Z,4.80
2022-09-15T03:20:31.384Z,4.80
2022-09-15T03:21:31.366Z,4.80
2022-09-15T03:22:31.380Z,5.60
2022-09-15T03:23:31.344Z,4.80
2022-09-15T03:24:31.370Z,4.70
2022-09-15T03:25:31.322Z,4.60
2022-09-15T03:26:31.324Z,5.50
2022-09-15T03:27:31.312Z,4.50
2022-09-15T03:28:31.298Z,5.80
2022-09-15T03:29:31.307Z,4.90
2022-09-15T03:30:31.279Z,4.20
2022-09-15T03:31:31.333Z,5.30
2022-09-15T03:32:31.275Z,3.70
2022-09-15T03:33:31.250Z,5.50
2022-09-15T03:34:31.238Z,5.10
2022-09-15T03:35:31.233Z,5.00
2022-09-15T03:36:31.218Z,4.90
2022-09-15T03:37:31.221Z,5.60
2022-09-15T03:38:31.202Z,4.90
2022-09-15T03:39:31.185Z,5.80
2022-09-15T03:40:31.257Z,4.00
2022-09-15T03:41:31.164Z,5.80
2022-09-15T03:42:31.170Z,5.50
2022-09-15T03:43:31.148Z,4.80
2022-09-15T03:44:31.139Z,5.20
2022-09-15T03:45:31.173Z,6.00
2022-09-15T03:46:31.141Z,4.50
2022-09-15T03:47:31.120Z,5.20
2022-09-15T03:48:31.100Z,4.50
2022-09-15T03:49:31.092Z,4.90
2022-09-15T03:50:31.078Z,4.70
2022-09-15T03:51:31.066Z,5.30
2022-09-15T03:52:31.068Z,5.20
2022-09-15T03:53:31.047Z,5.20
2022-09-15T03:54:31.040Z,5.80
2022-09-15T03:55:31.024Z,5.40
2022-09-15T03:56:31.018Z,3.80
2022-09-15T03:57:31.017Z,5.50
2022-09-15T03:58:31.078Z,5.10
2022-09-15T03:59:30.983Z,6.60
2022-09-15T04:00:31.052Z,4.80
2022-09-15T04:01:31.040Z,5.90
2022-09-15T04:02:30.982Z,4.90
2022-09-15T04:03:30.953Z,5.30
2022-09-15T04:04:30.957Z,3.50
2022-09-15T04:05:30.924Z,5.20
2022-09-15T04:06:30.932Z,6.00
2022-09-15T04:07:30.905Z,4.80
2022-09-15T04:08:30.898Z,5.20
2022-09-15T04:09:30.885Z,5.70
2022-09-15T04:10:30.890Z,5.40
2022-09-15T04:11:30.877Z,5.90
2022-09-15T04:12:30.876Z,5.10
2022-09-15T04:13:30.844Z,6.90
2022-09-15T04:14:30.839Z,5.80
2022-09-15T04:15:30.825Z,5.10
2022-09-15T04:16:30.868Z,5.50
2022-09-15T04:17:30.804Z,5.00
2022-09-15T04:18:30.799Z,5.60
2022-09-15T04:19:30.788Z,5.40
2022-09-15T04:20:30.772Z,5.70
2022-09-15T04:21:30.780Z,5.00
2022-09-15T04:22:30.754Z,5.30
2022-09-15T04:23:30.751Z,4.90
2022-09-15T04:24:30.733Z,3.40
2022-09-15T04:25:30.730Z,5.80
2022-09-15T04:26:30.714Z,4.90
2022-09-15T04:27:30.720Z,5.00
2022-09-15T04:28:30.702Z,4.70
2022-09-15T04:29:30.688Z,5.10
2022-09-15T04:30:30.674Z,6.90
2022-09-15T04:31:30.777Z,5.60
2022-09-15T04:32:30.670Z,5.20
2022-09-15T04:33:30.650Z,4.50
2022-09-15T04:34:30.645Z,4.30
2022-09-15T04:35:30.640Z,5.20
2022-09-15T04:36:30.623Z,4.60
2022-09-15T04:37:30.620Z,4.70
2022-09-15T04:38:30.612Z,4.80
2022-09-15T04:39:30.592Z,5.60
2022-09-15T04:40:30.610Z,4.50
2022-09-15T04:41:30.568Z,5.30
2022-09-15T04:42:30.575Z,4.80
2022-09-15T04:43:30.559Z,5.10
2022-09-15T04:44:30.534Z,5.20
2022-09-15T04:45:30.532Z,5.50
2022-09-15T04:46:30.550Z,4.90
2022-09-15T04:47:30.527Z,4.80
2022-09-15T04:48:30.498Z,4.40
2022-09-15T04:49:30.489Z,4.10
2022-09-15T04:50:30.500Z,5.60
2022-09-15T04:51:30.469Z,4.40
2022-09-15T04:52:30.478Z,4.80
2022-09-15T04:53:30.454Z,5.80
2022-09-15T04:54:30.436Z,6.10
2022-09-15T04:55:30.427Z,4.20
2022-09-15T04:56:30.414Z,5.90
2022-09-15T04:57:30.421Z,5.30
2022-09-15T04:58:30.395Z,5.00
2022-09-15T04:59:30.389Z,5.40
2022-09-15T05:00:30.556Z,6.30
2022-09-15T05:01:30.385Z,6.00
2022-09-15T05:02:30.491Z,6.70
2022-09-15T05:03:30.355Z,5.70
2022-09-15T05:04:30.339Z,5.20
2022-09-15T05:05:30.327Z,4.20
2022-09-15T05:06:30.315Z,4.90
2022-09-15T05:07:30.327Z,5.30
2022-09-15T05:08:30.316Z,6.30
2022-09-15T05:09:30.298Z,5.20
2022-09-15T05:10:30.284Z,5.40
2022-09-15T05:11:30.282Z,6.20
2022-09-15T05:12:30.276Z,6.00
2022-09-15T05:13:30.248Z,5.70
2022-09-15T05:14:30.235Z,6.10
2022-09-15T05:15:30.232Z,5.60
2022-09-15T05:16:30.286Z,5.40
2022-09-15T05:17:30.225Z,6.10
2022-09-15T05:18:30.194Z,5.40
2022-09-15T05:19:30.339Z,5.60
2022-09-15T05:20:30.177Z,5.50
2022-09-15T05:21:30.167Z,5.40
2022-09-15T05:22:30.169Z,5.00
2022-09-15T05:23:30.152Z,5.60
2022-09-15T05:24:30.135Z,4.90
2022-09-15T05:25:30.135Z,5.00
2022-09-15T05:26:30.137Z,5.50
2022-09-15T05:27:30.123Z,4.80
2022-09-15T05:28:30.097Z,5.60
2022-09-15T05:29:30.090Z,4.80
2022-09-15T05:30:38.565Z,4.80
2022-09-15T05:31:30.178Z,6.20
2022-09-15T05:32:30.054Z,4.90
2022-09-15T05:33:30.051Z,5.00
2022-09-15T05:34:30.034Z,6.00
2022-09-15T05:35:30.028Z,5.70
2022-09-15T05:36:30.032Z,6.10
2022-09-15T05:37:30.011Z,4.40
2022-09-15T05:38:29.995Z,5.50
2022-09-15T05:39:29.989Z,4.60
2022-09-15T05:40:30.018Z,4.90
2022-09-15T05:41:29.973Z,4.70
2022-09-15T05:42:29.968Z,5.20
2022-09-15T05:43:29.949Z,4.80
2022-09-15T05:44:29.939Z,5.80
2022-09-15T05:45:29.929Z,5.30
2022-09-15T05:46:29.946Z,4.90
2022-09-15T05:47:29.911Z,5.30
2022-09-15T05:48:29.895Z,5.20
2022-09-15T05:49:29.891Z,5.10
2022-09-15T05:50:29.877Z,4.70
2022-09-15T05:51:29.883Z,5.40
2022-09-15T05:52:29.855Z,4.00
2022-09-15T05:53:29.849Z,4.80
2022-09-15T05:54:29.835Z,4.90
2022-09-15T05:55:29.830Z,4.30
2022-09-15T05:56:29.832Z,4.70
2022-09-15T05:57:29.811Z,5.30
2022-09-15T05:58:29.795Z,5.40
2022-09-15T05:59:29.791Z,4.40
2022-09-15T06:00:29.774Z,4.60
2022-09-15T06:01:29.886Z,5.10
2022-09-15T06:02:29.791Z,5.90
2022-09-15T06:03:31.082Z,5.20
2022-09-15T06:04:29.736Z,3.70
2022-09-15T06:05:29.730Z,5.50
2022-09-15T06:06:29.726Z,4.80
2022-09-15T06:07:29.711Z,4.10
2022-09-15T06:08:29.696Z,5.60
2022-09-15T06:09:29.691Z,4.00
2022-09-15T06:10:29.679Z,5.20
2022-09-15T06:11:29.681Z,4.60
2022-09-15T06:12:29.656Z,4.80
2022-09-15T06:13:29.649Z,4.10
2022-09-15T06:14:29.634Z,5.70
2022-09-15T06:15:29.631Z,4.60
2022-09-15T06:16:29.663Z,4.70
2022-09-15T06:17:29.610Z,4.70
2022-09-15T06:18:29.597Z,4.80
2022-09-15T06:19:29.599Z,3.70
2022-09-15T06:20:29.576Z,5.20
2022-09-15T06:21:29.590Z,4.70
2022-09-15T06:22:29.557Z,5.00
2022-09-15T06:23:29.551Z,4.70
2022-09-15T06:24:29.535Z,5.80
2022-09-15T06:25:29.533Z,4.20
2022-09-15T06:26:29.535Z,4.70
2022-09-15T06:27:29.514Z,4.50
2022-09-15T06:28:29.493Z,4.40
2022-09-15T06:29:29.489Z,4.70
2022-09-15T06:30:29.498Z,3.90
2022-09-15T06:31:29.526Z,4.20
2022-09-15T06:32:29.473Z,3.70
2022-09-15T06:33:29.451Z,5.00
2022-09-15T06:34:29.476Z,4.60
2022-09-15T06:35:29.428Z,4.30
2022-09-15T06:36:29.431Z,3.80
2022-09-15T06:37:29.408Z,4.90
2022-09-15T06:38:29.396Z,4.80
2022-09-15T06:39:29.390Z,4.60
2022-09-15T06:40:29.455Z,4.40
2022-09-15T06:41:47.018Z,4.20
2022-09-15T06:42:29.364Z,4.90
2022-09-15T06:43:29.352Z,5.20
2022-09-15T06:44:29.335Z,4.20
2022-09-15T06:45:29.329Z,3.40
2022-09-15T06:46:29.414Z,4.30
2022-09-15T06:47:29.324Z,4.20
2022-09-15T06:48:29.295Z,4.60
2022-09-15T06:49:29.293Z,3.80
2022-09-15T06:50:29.274Z,4.80
2022-09-15T06:51:29.299Z,4.60
2022-09-15T06:52:35.274Z,3.90
2022-09-15T06:53:29.263Z,4.50
2022-09-15T06:54:29.261Z,4.30
2022-09-15T06:55:29.242Z,4.10
2022-09-15T06:56:29.228Z,4.10
2022-09-15T06:57:29.217Z,4.60
2022-09-15T06:58:29.195Z,3.60
2022-09-15T06:59:29.192Z,4.10
2022-09-15T07:00:29.178Z,4.10
2022-09-15T07:01:29.182Z,3.80
2022-09-15T07:02:29.318Z,3.80
2022-09-15T07:03:29.351Z,3.90
2022-09-15T07:04:29.136Z,3.60
2022-09-15T07:05:29.131Z,4.10
2022-09-15T07:06:29.141Z,4.20
2022-09-15T07:07:29.129Z,3.40
2022-09-15T07:08:29.096Z,4.20
2022-09-15T07:09:29.089Z,4.30
2022-09-15T07:10:29.074Z,4.90
2022-09-15T07:11:29.069Z,4.80
2022-09-15T07:12:29.077Z,3.80
2022-09-15T07:13:29.054Z,3.70
2022-09-15T07:14:29.037Z,4.00
2022-09-15T07:15:29.029Z,4.50
2022-09-15T07:16:29.094Z,3.40
2022-09-15T07:17:29.025Z,4.70
2022-09-15T07:18:28.995Z,4.30
2022-09-15T07:19:28.990Z,3.80
2022-09-15T07:20:28.980Z,4.00
2022-09-15T07:21:28.982Z,4.40
2022-09-15T07:22:28.975Z,4.40
2022-09-15T07:23:28.951Z,4.20
2022-09-15T07:24:28.935Z,4.20
2022-09-15T07:25:28.929Z,3.80
2022-09-15T07:26:28.924Z,4.60
2022-09-15T07:27:28.909Z,5.10
2022-09-15T07:28:28.896Z,4.40
2022-09-15T07:29:28.913Z,5.00
2022-09-15T07:30:28.880Z,4.10
2022-09-15T07:31:28.930Z,4.10
2022-09-15T07:32:28.856Z,3.80
2022-09-15T07:33:28.848Z,3.70
2022-09-15T07:34:28.832Z,3.60
2022-09-15T07:35:28.834Z,3.00
2022-09-15T07:36:28.831Z,3.60
2022-09-15T07:37:28.813Z,2.90
2022-09-15T07:38:28.795Z,3.70
2022-09-15T07:39:28.791Z,3.30
2022-09-15T07:40:28.906Z,3.60
2022-09-15T07:41:28.783Z,3.60
2022-09-15T07:42:32.171Z,3.90
2022-09-15T07:43:28.757Z,2.90
2022-09-15T07:44:28.739Z,3.00
2022-09-15T07:45:28.775Z,3.60
2022-09-15T07:46:28.745Z,3.40
2022-09-15T07:47:28.711Z,3.30
2022-09-15T07:48:28.696Z,3.20
2022-09-15T07:49:28.692Z,3.10
2022-09-15T07:50:28.682Z,4.20
2022-09-15T07:51:28.682Z,3.70
2022-09-15T07:52:28.656Z,2.70
2022-09-15T07:53:28.655Z,3.10
2022-09-15T07:54:28.633Z,3.80
2022-09-15T07:55:28.631Z,3.30
2022-09-15T07:56:28.626Z,2.90
2022-09-15T07:57:28.610Z,3.50
2022-09-15T07:58:28.596Z,3.40
2022-09-15T07:59:28.590Z,3.90
2022-09-15T08:00:28.649Z,3.50
2022-09-15T08:01:28.693Z,3.40
2022-09-15T08:02:28.593Z,3.20
2022-09-15T08:03:28.566Z,3.90
2022-09-15T08:04:28.537Z,3.60
2022-09-15T08:05:28.540Z,4.10
2022-09-15T08:06:28.532Z,3.10
2022-09-15T08:07:28.512Z,3.20
2022-09-15T08:08:28.498Z,3.30
2022-09-15T08:09:28.493Z,3.60
2022-09-15T08:10:28.481Z,3.60
2022-09-15T08:11:28.488Z,3.50
2022-09-15T08:12:28.520Z,4.00
2022-09-15T08:13:28.453Z,3.90
2022-09-15T08:14:28.437Z,4.30
2022-09-15T08:15:28.430Z,4.10
2022-09-15T08:16:28.476Z,3.70
2022-09-15T08:17:28.522Z,3.80
2022-09-15T08:18:28.398Z,4.70
2022-09-15T08:19:28.393Z,3.80
2022-09-15T08:20:28.375Z,4.10
2022-09-15T08:21:28.383Z,3.90
2022-09-15T08:22:28.378Z,3.80
2022-09-15T08:23:28.354Z,4.30
2022-09-15T08:24:28.336Z,4.10
2022-09-15T08:25:28.331Z,5.80
2022-09-15T08:26:28.334Z,3.50
2022-09-15T08:27:28.314Z,4.60
2022-09-15T08:28:28.293Z,3.80
2022-09-15T08:29:28.314Z,2.80
2022-09-15T08:30:28.282Z,3.30
2022-09-15T08:31:28.359Z,3.60
2022-09-15T08:32:28.283Z,3.80
2022-09-15T08:33:28.256Z,4.50
2022-09-15T08:34:28.240Z,3.50
2022-09-15T08:35:28.241Z,3.60
2022-09-15T08:36:28.460Z,3.20
2022-09-15T08:37:28.259Z,3.20
2022-09-15T08:38:28.202Z,3.70
2022-09-15T08:39:28.184Z,4.10
2022-09-15T08:40:28.205Z,4.40
2022-09-15T08:41:28.181Z,3.70
2022-09-15T08:42:28.240Z,3.20
2022-09-15T08:43:28.146Z,4.50
2022-09-15T08:44:28.140Z,3.90
2022-09-15T08:45:28.127Z,4.30
2022-09-15T08:46:28.188Z,3.00
2022-09-15T08:47:28.106Z,4.10
2022-09-15T08:48:28.101Z,3.40
2022-09-15T08:49:49.904Z,3.90
2022-09-15T08:50:28.085Z,4.10
2022-09-15T08:51:28.080Z,3.50
2022-09-15T08:52:28.060Z,3.90
2022-09-15T08:53:28.046Z,4.10
2022-09-15T08:54:28.042Z,4.00
2022-09-15T08:55:28.027Z,4.20
2022-09-15T08:56:28.022Z,4.50
2022-09-15T08:57:28.021Z,3.90
2022-09-15T08:58:28.003Z,3.90
2022-09-15T08:59:27.987Z,3.60
2022-09-15T09:00:27.979Z,4.10
2022-09-15T09:01:28.034Z,3.80
2022-09-15T09:02:28.226Z,4.20
2022-09-15T09:03:27.946Z,3.50
2022-09-15T09:04:27.945Z,3.60
2022-09-15T09:05:27.933Z,3.60
2022-09-15T09:06:27.936Z,3.70
2022-09-15T09:07:27.906Z,3.30
2022-09-15T09:08:27.901Z,3.80
2022-09-15T09:09:27.886Z,3.60
2022-09-15T09:10:27.881Z,3.50
2022-09-15T09:11:27.869Z,3.70
2022-09-15T09:12:27.874Z,3.30
2022-09-15T09:13:29.994Z,3.50
2022-09-15T09:14:27.851Z,3.80
2022-09-15T09:15:27.894Z,3.30
2022-09-15T09:16:27.820Z,3.40
2022-09-15T09:17:27.819Z,3.10
2022-09-15T09:18:27.837Z,2.70
2022-09-15T09:19:31.879Z,3.40
2022-09-15T09:20:27.779Z,3.70
2022-09-15T09:21:27.769Z,3.50
2022-09-15T09:22:27.779Z,3.60
2022-09-15T09:23:27.745Z,3.10
2022-09-15T09:24:27.759Z,3.30
2022-09-15T09:25:28.527Z,3.70
2022-09-15T09:26:27.720Z,2.80
2022-09-15T09:27:27.719Z,3.90
2022-09-15T09:28:27.703Z,4.10
2022-09-15T09:29:27.687Z,3.80
2022-09-15T09:30:27.700Z,3.30
2022-09-15T09:31:27.747Z,3.90
2022-09-15T09:32:27.680Z,3.50
2022-09-15T09:33:27.647Z,3.80
2022-09-15T09:34:27.641Z,4.00
2022-09-15T09:35:27.632Z,3.70
2022-09-15T09:36:27.623Z,3.90
2022-09-15T09:37:27.619Z,4.00
2022-09-15T09:38:27.600Z,3.60
2022-09-15T09:39:27.589Z,3.90
2022-09-15T09:40:27.719Z,3.30
2022-09-15T09:41:27.593Z,3.00
2022-09-15T09:42:27.576Z,3.30
2022-09-15T09:43:27.571Z,3.90
2022-09-15T09:44:27.539Z,3.70
2022-09-15T09:45:27.528Z,3.50
2022-09-15T09:46:27.734Z,3.50
2022-09-15T09:47:27.520Z,3.30
2022-09-15T09:48:27.513Z,3.70
2022-09-15T09:49:27.491Z,3.80
2022-09-15T09:50:27.482Z,3.60
2022-09-15T09:51:27.497Z,4.10
2022-09-15T09:52:27.473Z,3.70
2022-09-15T09:53:27.472Z,3.90
2022-09-15T09:54:27.456Z,3.30
2022-09-15T09:55:27.429Z,3.70
2022-09-15T09:56:27.423Z,3.90
2022-09-15T09:57:27.438Z,3.70
2022-09-15T09:58:27.402Z,3.40
2022-09-15T09:59:27.387Z,3.10
2022-09-15T10:00:27.381Z,3.30
2022-09-15T10:01:27.458Z,3.10
2022-09-15T10:02:27.377Z,3.80
2022-09-15T10:03:32.665Z,3.90
2022-09-15T10:04:27.388Z,3.20
2022-09-15T10:05:27.324Z,3.60
2022-09-15T10:06:27.343Z,3.80
2022-09-15T10:07:27.328Z,3.60
2022-09-15T10:08:27.301Z,3.80
2022-09-15T10:09:32.608Z,3.30
2022-09-15T10:10:27.287Z,3.10
2022-09-15T10:11:27.265Z,3.60
2022-09-15T10:12:27.268Z,2.90
2022-09-15T10:13:27.261Z,3.20
2022-09-15T10:14:27.243Z,2.80
2022-09-15T10:15:27.226Z,3.50
2022-09-15T10:16:27.260Z,3.50
2022-09-15T10:17:27.308Z,3.50
2022-09-15T10:18:27.213Z,3.30
2022-09-15T10:19:27.186Z,3.50
2022-09-15T10:20:27.183Z,3.10
2022-09-15T10:21:27.166Z,3.50
2022-09-15T10:22:27.163Z,3.60
2022-09-15T10:23:27.166Z,2.60
2022-09-15T10:24:27.146Z,3.10
2022-09-15T10:25:39.530Z,2.30
2022-09-15T10:26:27.127Z,2.60
2022-09-15T10:27:27.107Z,2.10
2022-09-15T10:28:27.114Z,2.80
2022-09-15T10:29:27.088Z,2.00
2022-09-15T10:30:27.123Z,2.30
2022-09-15T10:31:27.121Z,2.80
2022-09-15T10:32:27.126Z,2.60
2022-09-15T10:33:27.061Z,2.10
2022-09-15T10:34:27.039Z,2.40
2022-09-15T10:35:27.028Z,2.20
2022-09-15T10:36:27.019Z,2.20
2022-09-15T10:37:27.012Z,2.20
2022-09-15T10:38:27.013Z,2.00
2022-09-15T10:39:26.988Z,1.60
2022-09-15T10:40:27.054Z,1.40
2022-09-15T10:41:26.972Z,1.80
2022-09-15T10:42:26.963Z,1.90
2022-09-15T10:43:26.961Z,2.10
2022-09-15T10:44:26.939Z,2.70
2022-09-15T10:45:26.975Z,1.90
2022-09-15T10:46:26.921Z,2.30
2022-09-15T10:47:26.907Z,2.40
2022-09-15T10:48:26.914Z,2.20
2022-09-15T10:49:26.886Z,2.10
2022-09-15T10:50:26.882Z,1.90
2022-09-15T10:51:26.880Z,1.50
2022-09-15T10:52:26.865Z,1.40
2022-09-15T10:53:26.873Z,1.70
2022-09-15T10:54:26.841Z,1.30
2022-09-15T10:55:42.548Z,1.40
2022-09-15T10:56:26.828Z,1.80
2022-09-15T10:58:26.799Z,1.50
2022-09-15T10:59:26.801Z,1.50
2022-09-15T11:00:26.781Z,1.50
2022-09-15T11:01:26.769Z,1.40
2022-09-15T11:02:26.788Z,1.40
2022-09-15T11:03:26.747Z,1.90
2022-09-15T11:04:26.754Z,1.40
2022-09-15T11:05:26.727Z,1.40
2022-09-15T11:06:26.725Z,1.70
2022-09-15T11:07:26.717Z,1.40
2022-09-15T11:08:26.722Z,1.50
2022-09-15T11:09:26.689Z,1.80
2022-09-15T11:10:26.691Z,1.70
2022-09-15T11:11:26.671Z,1.70
2022-09-15T11:12:29.278Z,1.70
2022-09-15T11:13:26.648Z,1.80
2022-09-15T11:14:26.669Z,1.80
2022-09-15T11:15:26.627Z,1.80
2022-09-15T11:16:26.668Z,2.10
2022-09-15T11:17:26.609Z,1.80
2022-09-15T11:18:26.601Z,2.10
2022-09-15T11:19:26.600Z,2.30
2022-09-15T11:20:26.578Z,2.20
2022-09-15T11:21:26.569Z,2.20
2022-09-15T11:22:26.561Z,1.50
2022-09-15T11:23:26.545Z,1.60
2022-09-15T11:24:26.552Z,1.30
2022-09-15T11:25:26.526Z,1.90
2022-09-15T11:26:26.519Z,2.10
2022-09-15T11:27:26.507Z,1.40
2022-09-15T11:28:26.502Z,2.10
2022-09-15T11:29:26.502Z,1.40
2022-09-15T11:30:26.479Z,1.60
2022-09-15T11:31:26.567Z,1.70
2022-09-15T11:32:26.461Z,1.60
2022-09-15T11:33:26.450Z,2.00
2022-09-15T11:34:26.458Z,1.40
2022-09-15T11:35:26.435Z,2.00
2022-09-15T11:36:26.425Z,2.10
2022-09-15T11:37:26.407Z,2.10
2022-09-15T11:38:26.403Z,1.50
2022-09-15T11:39:26.399Z,2.20
2022-09-15T11:40:26.465Z,1.50
2022-09-15T11:41:26.366Z,1.80
2022-09-15T11:42:26.361Z,1.60
2022-09-15T11:43:26.346Z,1.70
2022-09-15T11:44:26.361Z,1.80
2022-09-15T11:45:26.330Z,1.80
2022-09-15T11:46:26.349Z,1.20
2022-09-15T11:47:26.310Z,1.40
2022-09-15T11:48:26.298Z,1.40
2022-09-15T11:49:26.305Z,1.40
2022-09-15T11:50:26.947Z,1.60
2022-09-15T11:51:26.268Z,1.30
2022-09-15T11:52:26.261Z,1.50
2022-09-15T11:53:26.250Z,1.20
2022-09-15T11:54:28.199Z,1.20
2022-09-15T11:55:26.230Z,1.60
2022-09-15T11:56:26.222Z,1.30
2022-09-15T11:57:26.211Z,1.50
2022-09-15T11:58:26.231Z,1.60
2022-09-15T11:59:26.198Z,1.40
2022-09-15T12:00:26.183Z,1.20
2022-09-15T12:01:26.167Z,1.60
2022-09-15T12:02:26.284Z,1.60
2022-09-15T12:03:26.147Z,1.70
2022-09-15T12:04:26.155Z,1.00
2022-09-15T12:05:26.125Z,1.40
2022-09-15T12:06:26.124Z,1.70
2022-09-15T12:07:26.104Z,1.50
2022-09-15T12:08:26.103Z,1.30
2022-09-15T12:09:26.102Z,1.10
2022-09-15T12:10:26.082Z,1.30
2022-09-15T12:11:26.068Z,1.40
2022-09-15T12:12:30.608Z,1.20
2022-09-15T12:13:26.055Z,1.50
2022-09-15T12:14:26.055Z,1.20
2022-09-15T12:15:26.028Z,1.30
2022-09-15T12:16:26.105Z,1.20
2022-09-15T12:17:26.011Z,1.20
2022-09-15T12:18:43.862Z,1.40
2022-09-15T12:19:26.007Z,1.60
2022-09-15T12:20:25.980Z,1.80
2022-09-15T12:21:25.968Z,1.50
2022-09-15T12:22:25.965Z,1.40
2022-09-15T12:23:25.951Z,1.40
2022-09-15T12:24:25.960Z,1.50
2022-09-15T12:25:25.931Z,2.20
2022-09-15T12:26:25.925Z,1.70
2022-09-15T12:27:25.910Z,1.60
2022-09-15T12:28:25.946Z,1.80
2022-09-15T12:29:25.903Z,1.80
2022-09-15T12:30:25.882Z,1.90
2022-09-15T12:31:25.962Z,1.20
2022-09-15T12:32:25.867Z,1.40
2022-09-15T12:33:25.847Z,1.60
2022-09-15T12:34:25.855Z,2.20
2022-09-15T12:35:25.831Z,1.70
2022-09-15T12:36:25.825Z,1.30
2022-09-15T12:37:25.814Z,1.70
2022-09-15T12:38:25.807Z,1.50
2022-09-15T12:39:25.807Z,1.80
2022-09-15T12:40:25.895Z,1.40
2022-09-15T12:41:25.773Z,1.70
2022-09-15T12:42:25.764Z,1.60
2022-09-15T12:43:25.754Z,1.60
2022-09-15T12:44:25.761Z,1.60
2022-09-15T12:45:25.729Z,1.60
2022-09-15T12:46:25.778Z,1.40
2022-09-15T12:47:25.711Z,1.80
2022-09-15T12:48:25.708Z,1.80
2022-09-15T12:49:25.718Z,1.70
2022-09-15T12:50:25.682Z,1.70
2022-09-15T12:51:25.673Z,1.80
2022-09-15T12:52:25.665Z,1.40
2022-09-15T12:53:31.728Z,1.50
2022-09-15T12:54:27.208Z,1.50
2022-09-15T12:55:25.647Z,1.60
2022-09-15T12:56:25.622Z,2.30
2022-09-15T12:57:25.616Z,1.90
2022-09-15T12:58:25.625Z,1.70
2022-09-15T12:59:25.601Z,2.00
2022-09-15T13:00:25.598Z,2.00
2022-09-15T13:01:25.630Z,2.10
2022-09-15T13:02:25.717Z,2.10
2022-09-15T13:03:25.615Z,1.70
2022-09-15T13:04:25.541Z,1.90
2022-09-15T13:05:25.549Z,2.10
2022-09-15T13:06:25.524Z,2.10
2022-09-15T13:07:25.514Z,1.90
2022-09-15T13:08:25.505Z,2.20
2022-09-15T13:09:25.498Z,1.90
2022-09-15T13:10:25.496Z,2.10
2022-09-15T13:11:25.477Z,1.90
2022-09-15T13:12:25.462Z,2.20
2022-09-15T13:13:27.780Z,1.90
2022-09-15T13:14:25.443Z,2.60
2022-09-15T13:15:25.517Z,2.20
2022-09-15T13:16:25.423Z,2.30
2022-09-15T13:17:25.419Z,1.80
2022-09-15T13:18:25.408Z,2.20
2022-09-15T13:19:25.398Z,2.20